Main page
METAR-TAF:

METAR-TAF

Airports :

Pellston Regional Airport

Pellston, Michigan, United States

latitude: 45-34-15N, longitude: 084-47-48W, elevation: 220 m

Current weather observation

The report was made 34 minutes ago, at 09:54 UTC
Calm wind
Temperature 6°C
Humidity 87%
Pressure 1022 hPa
Visibility: 16.1 km
Clear sky

METAR: KPLN 150954Z AUTO 00000KT 10SM CLR 06/04 A3018 RMK AO2 SLP220 T00560044

Time: 06:28 (10:28 UTC)

Forecast

The report was made 5 hours and 8 minutes ago, at 05:20 UTC
Forecast valid from 15 at 06 UTC to 16 at 06 UTC
Wind kt from the North
Visibility: 10 km
Clear sky

TAF: KPLN 150520Z 1506/1606 00000KT P6SM SKC

Weather observations and forecasts of more than 4000 airports (METAR and TAF reports).

The available stations are represented by yellow and red dots on the map.

Hover mouse over dot to see the name of the station.

Then click to see weather observations and forecasts.

To change the map : click on the green buttons with a black cross to zoom in, on the green button with a dash to zoom out, or on the green arrows for adjacent maps.


METAR-TAF: